CGNBR EGFF-EGCJ
Flight info
| Callsign | CGNBR |
|---|---|
| Flight time | N/A |
| Altitude | 2500 |
| Route | DIRECT |
| Aircraft | BE36/L-V/N |
Departure
| Time | N/A |
|---|---|
| Airport | Cardiff International Airport (EGFF) |
Arrival
| Time | 2026-05-04 11:47 |
|---|---|
| Airport | Sherburn-in-Elmet Airfield (EGCJ) |
| Time | Latitude | Longitude | Altitude | Speed | Heading |
|---|---|---|---|---|---|
| 2026-05-04 11:00 | 51.89450 | -2.16097 | 89 ft | 0 kts | 259° |
| 2026-05-04 11:01 | 51.89441 | -2.16148 | 89 ft | 0 kts | 261° |
| 2026-05-04 11:05 | 51.99306 | -2.15348 | 1516 ft | 185 kts | 16° |
| 2026-05-04 11:06 | 52.00531 | -2.14720 | 1590 ft | 184 kts | 16° |
| 2026-05-04 11:06 | 52.01750 | -2.14097 | 1669 ft | 183 kts | 16° |
| 2026-05-04 11:06 | 52.02961 | -2.13476 | 1735 ft | 182 kts | 16° |
| 2026-05-04 11:06 | 52.04166 | -2.12856 | 1818 ft | 183 kts | 16° |
| 2026-05-04 11:08 | 52.12874 | -2.08382 | 2001 ft | 193 kts | 16° |
| 2026-05-04 11:10 | 52.21733 | -2.03834 | 1999 ft | 189 kts | 16° |
| 2026-05-04 11:12 | 52.30535 | -1.99298 | 1998 ft | 189 kts | 16° |
| 2026-05-04 11:12 | 52.31789 | -1.98651 | 2002 ft | 190 kts | 16° |
| 2026-05-04 11:12 | 52.33045 | -1.98003 | 1998 ft | 189 kts | 16° |
| 2026-05-04 11:12 | 52.34299 | -1.97354 | 1997 ft | 188 kts | 16° |
| 2026-05-04 11:13 | 52.35550 | -1.96710 | 1997 ft | 188 kts | 16° |
| 2026-05-04 11:13 | 52.36801 | -1.96062 | 2000 ft | 190 kts | 16° |
| 2026-05-04 11:13 | 52.38060 | -1.95409 | 2004 ft | 190 kts | 16° |
| 2026-05-04 11:13 | 52.39313 | -1.94761 | 2001 ft | 192 kts | 16° |
| 2026-05-04 11:14 | 52.40581 | -1.94105 | 2000 ft | 191 kts | 16° |
| 2026-05-04 11:14 | 52.41848 | -1.93450 | 2005 ft | 192 kts | 16° |
| 2026-05-04 11:14 | 52.43124 | -1.92794 | 2006 ft | 193 kts | 16° |
| 2026-05-04 11:16 | 52.52018 | -1.88188 | 2004 ft | 192 kts | 16° |
| 2026-05-04 11:16 | 52.53287 | -1.87529 | 2001 ft | 191 kts | 16° |
| 2026-05-04 11:16 | 52.54555 | -1.86866 | 2002 ft | 191 kts | 16° |
| 2026-05-04 11:17 | 52.55827 | -1.86209 | 2004 ft | 192 kts | 16° |
| 2026-05-04 11:17 | 52.57102 | -1.85550 | 2001 ft | 192 kts | 16° |
| 2026-05-04 11:19 | 52.65904 | -1.80977 | 1999 ft | 190 kts | 16° |
| 2026-05-04 11:19 | 52.67165 | -1.80319 | 2003 ft | 191 kts | 16° |
| 2026-05-04 11:19 | 52.68431 | -1.79661 | 1998 ft | 190 kts | 16° |
| 2026-05-04 11:19 | 52.69694 | -1.79002 | 2001 ft | 190 kts | 16° |
| 2026-05-04 11:20 | 52.70958 | -1.78343 | 2004 ft | 191 kts | 16° |
| 2026-05-04 11:20 | 52.72232 | -1.77677 | 2003 ft | 192 kts | 16° |
| 2026-05-04 11:20 | 52.73507 | -1.77016 | 2004 ft | 192 kts | 16° |
| 2026-05-04 11:20 | 52.74779 | -1.76353 | 2004 ft | 193 kts | 16° |
| 2026-05-04 11:22 | 52.83557 | -1.71775 | 2002 ft | 190 kts | 16° |
| 2026-05-04 11:22 | 52.84820 | -1.71112 | 1997 ft | 190 kts | 16° |
| 2026-05-04 11:23 | 52.86075 | -1.70456 | 1996 ft | 189 kts | 16° |
| 2026-05-04 11:23 | 52.87328 | -1.69796 | 2003 ft | 190 kts | 16° |
| 2026-05-04 11:24 | 52.94950 | -1.65803 | 2004 ft | 190 kts | 16° |
| 2026-05-04 11:25 | 52.96214 | -1.65142 | 2003 ft | 190 kts | 16° |
| 2026-05-04 11:25 | 52.97481 | -1.64478 | 2001 ft | 191 kts | 16° |
| 2026-05-04 11:25 | 52.98746 | -1.63816 | 1997 ft | 190 kts | 16° |
| 2026-05-04 11:26 | 53.01237 | -1.62515 | 1997 ft | 189 kts | 16° |
| 2026-05-04 11:27 | 53.10018 | -1.57829 | 1996 ft | 189 kts | 16° |
| 2026-05-04 11:28 | 53.11260 | -1.57170 | 1994 ft | 190 kts | 16° |
| 2026-05-04 11:28 | 53.12517 | -1.56501 | 1992 ft | 189 kts | 16° |
| 2026-05-04 11:28 | 53.13763 | -1.55850 | 1996 ft | 187 kts | 16° |
| 2026-05-04 11:28 | 53.15016 | -1.55196 | 1999 ft | 190 kts | 16° |
| 2026-05-04 11:29 | 53.16275 | -1.54533 | 2001 ft | 190 kts | 16° |
| 2026-05-04 11:29 | 53.17532 | -1.53872 | 1998 ft | 185 kts | 15° |
| 2026-05-04 11:29 | 53.18603 | -1.53314 | 1992 ft | 170 kts | 16° |
| 2026-05-04 11:29 | 53.19693 | -1.52733 | 1990 ft | 161 kts | 16° |
| 2026-05-04 11:31 | 53.26658 | -1.48962 | 1995 ft | 148 kts | 16° |
| 2026-05-04 11:33 | 53.33577 | -1.45178 | 2008 ft | 150 kts | 16° |
| 2026-05-04 11:33 | 53.34569 | -1.44633 | 2008 ft | 151 kts | 16° |
| 2026-05-04 11:33 | 53.35549 | -1.44096 | 2007 ft | 151 kts | 16° |
| 2026-05-04 11:34 | 53.36544 | -1.43553 | 2009 ft | 150 kts | 16° |
| 2026-05-04 11:34 | 53.37528 | -1.43011 | 2007 ft | 148 kts | 16° |
| 2026-05-04 11:34 | 53.38491 | -1.42486 | 2006 ft | 147 kts | 16° |
| 2026-05-04 11:34 | 53.39468 | -1.41956 | 2005 ft | 148 kts | 16° |
| 2026-05-04 11:35 | 53.40452 | -1.41418 | 2009 ft | 150 kts | 16° |
| 2026-05-04 11:35 | 53.41445 | -1.40876 | 2010 ft | 151 kts | 16° |
| 2026-05-04 11:35 | 53.42447 | -1.40328 | 2006 ft | 152 kts | 16° |
| 2026-05-04 11:35 | 53.43446 | -1.39783 | 2010 ft | 151 kts | 16° |
| 2026-05-04 11:36 | 53.44449 | -1.39237 | 2010 ft | 152 kts | 16° |
| 2026-05-04 11:36 | 53.45453 | -1.38689 | 2009 ft | 152 kts | 16° |
| 2026-05-04 11:36 | 53.46450 | -1.38140 | 2001 ft | 150 kts | 16° |
| 2026-05-04 11:36 | 53.47430 | -1.37604 | 2005 ft | 150 kts | 16° |
| 2026-05-04 11:37 | 53.48426 | -1.37057 | 2000 ft | 151 kts | 16° |
| 2026-05-04 11:37 | 53.49412 | -1.36518 | 2006 ft | 148 kts | 16° |
| 2026-05-04 11:37 | 53.50398 | -1.35977 | 1998 ft | 148 kts | 16° |
| 2026-05-04 11:37 | 53.51385 | -1.35439 | 2004 ft | 151 kts | 16° |
| 2026-05-04 11:38 | 53.52348 | -1.34910 | 2002 ft | 149 kts | 16° |
| 2026-05-04 11:38 | 53.53285 | -1.34393 | 2008 ft | 150 kts | 16° |
| 2026-05-04 11:38 | 53.54274 | -1.33855 | 2005 ft | 149 kts | 16° |
| 2026-05-04 11:38 | 53.55252 | -1.33318 | 2003 ft | 148 kts | 16° |
| 2026-05-04 11:39 | 53.56235 | -1.32770 | 2008 ft | 150 kts | 17° |
| 2026-05-04 11:39 | 53.57218 | -1.32233 | 2005 ft | 151 kts | 16° |
| 2026-05-04 11:40 | 53.63188 | -1.28966 | 2010 ft | 153 kts | 16° |
| 2026-05-04 11:41 | 53.64197 | -1.28411 | 2005 ft | 153 kts | 16° |
| 2026-05-04 11:41 | 53.65205 | -1.27856 | 2007 ft | 155 kts | 16° |
| 2026-05-04 11:41 | 53.66234 | -1.27290 | 2006 ft | 155 kts | 16° |
| 2026-05-04 11:41 | 53.67255 | -1.26731 | 2005 ft | 154 kts | 16° |
| 2026-05-04 11:42 | 53.68268 | -1.26172 | 2005 ft | 152 kts | 16° |
| 2026-05-04 11:42 | 53.69275 | -1.25620 | 2000 ft | 151 kts | 16° |
| 2026-05-04 11:42 | 53.70271 | -1.25071 | 2002 ft | 151 kts | 16° |
| 2026-05-04 11:42 | 53.71189 | -1.24571 | 1998 ft | 152 kts | 16° |
| 2026-05-04 11:43 | 53.72188 | -1.24023 | 2004 ft | 151 kts | 16° |
| 2026-05-04 11:43 | 53.73187 | -1.23474 | 1995 ft | 149 kts | 16° |
| 2026-05-04 11:43 | 53.74157 | -1.22939 | 2000 ft | 149 kts | 16° |
| 2026-05-04 11:43 | 53.75152 | -1.22385 | 1994 ft | 151 kts | 16° |
| 2026-05-04 11:44 | 53.76084 | -1.21817 | 2042 ft | 124 kts | 26° |
| 2026-05-04 11:44 | 53.76536 | -1.20823 | 1917 ft | 115 kts | 84° |
| 2026-05-04 11:44 | 53.76070 | -1.19637 | 1222 ft | 139 kts | 175° |
| 2026-05-04 11:44 | 53.75138 | -1.19284 | 1198 ft | 146 kts | 146° |
| 2026-05-04 11:45 | 53.74803 | -1.17766 | 832 ft | 171 kts | 63° |
| 2026-05-04 11:45 | 53.75780 | -1.17139 | 1053 ft | 144 kts | 343° |
| 2026-05-04 11:45 | 53.76464 | -1.17989 | 1124 ft | 121 kts | 314° |
| 2026-05-04 11:45 | 53.77218 | -1.18620 | 639 ft | 122 kts | 354° |
| 2026-05-04 11:46 | 53.77885 | -1.18630 | 534 ft | 85 kts | 337° |
| 2026-05-04 11:46 | 53.78168 | -1.19495 | 336 ft | 94 kts | 281° |
| 2026-05-04 11:46 | 53.78259 | -1.20568 | 119 ft | 81 kts | 280° |
| 2026-05-04 11:46 | 53.78370 | -1.21402 | 37 ft | 66 kts | 282° |
| 2026-05-04 11:47 | 53.78429 | -1.21763 | 26 ft | 0 kts | 291° |
| 2026-05-04 11:47 | 53.78469 | -1.22091 | 29 ft | 36 kts | 278° |
| 2026-05-04 11:47 | 53.78505 | -1.22344 | 31 ft | 10 kts | 328° |
| 2026-05-04 11:47 | 53.78536 | -1.22221 | 32 ft | 37 kts | 110° |
| 2026-05-04 11:48 | 53.78465 | -1.21842 | 27 ft | 31 kts | 97° |
| 2026-05-04 11:48 | 53.78424 | -1.21491 | 27 ft | 43 kts | 109° |
| 2026-05-04 11:48 | 53.78363 | -1.21030 | 30 ft | 12 kts | 145° |
| 2026-05-04 11:48 | 53.78377 | -1.21180 | 30 ft | 25 kts | 292° |
| 2026-05-04 11:49 | 53.78437 | -1.21380 | 28 ft | 12 kts | 7° |
| 2026-05-04 11:49 | 53.78474 | -1.21373 | 28 ft | 0 kts | 4° |